Terminal Aerodrome Forecast
Issued by NWS Topeka, KS

Home | Current Version | Previous Version | Text Only | Print | Product List | Glossary Off
Versions: 1 2 3 4 5 6 7 8 9 10 11 12 13 14 15 16 17 18 19 20 21 22 23

000
FTUS43 KTOP 150800 AAA
TAFTOP
TAF AMD
KTOP 150835Z 1509/1606 08007KT P6SM -SHRA SCT022 BKN035
     FM150900 09008KT P6SM -SHRA BKN022
     FM151600 11011KT P6SM BKN022=

USA.gov is the U.S. government's official web portal to all federal, state and local government web resources and services.